Time;durP1;ratioP1;P1;durP2;ratioP2;P2;SDS_P1;SDS_P2;PMS_P1;PMS_P2;Temp;Humidity;BMP_temperature;BMP_pressure;BME280_temperature;BME280_humidity;BME280_pressure;Samples;Min_cycle;Max_cycle;Signal;HPM_P1;HPM_P2
2023/08/04 00:00:21;;;;;;;17.25;8.95;;;;;;;24.82;100.00;99886.91;5006454;28;20034;-77
2023/08/04 00:02:46;;;;;;;12.40;8.90;;;;;;;24.77;100.00;99871.09;5001615;28;20451;-78
2023/08/04 00:05:12;;;;;;;21.15;11.25;;;;;;;24.67;100.00;99866.44;5003917;28;20595;-77
2023/08/04 00:07:37;;;;;;;16.98;8.32;;;;;;;24.73;100.00;99847.25;4998438;28;20038;-77
2023/08/04 00:10:03;;;;;;;16.75;9.98;;;;;;;24.79;100.00;99897.81;5004413;28;20064;-79
2023/08/04 00:12:30;;;;;;;14.02;8.13;;;;;;;24.56;100.00;99883.25;5004615;28;20042;-77
2023/08/04 00:14:55;;;;;;;14.70;8.13;;;;;;;24.98;100.00;99943.94;5006314;28;20026;-77
2023/08/04 00:17:21;;;;;;;12.48;6.35;;;;;;;25.11;100.00;99970.81;5004959;28;20504;-77
2023/08/04 00:19:46;;;;;;;17.10;6.80;;;;;;;24.94;100.00;99963.91;5010627;28;20044;-76
2023/08/04 00:22:12;;;;;;;13.02;7.50;;;;;;;24.57;100.00;99915.34;5009569;28;20040;-77
2023/08/04 00:24:37;;;;;;;13.38;4.90;;;;;;;24.75;100.00;99958.91;5010603;28;20657;-77
2023/08/04 00:27:03;;;;;;;10.05;5.13;;;;;;;24.88;100.00;99977.72;5006182;28;20117;-77
2023/08/04 00:29:29;;;;;;;6.53;4.35;;;;;;;24.28;100.00;99882.38;5010684;28;20030;-77
2023/08/04 00:31:55;;;;;;;7.60;4.82;;;;;;;24.09;100.00;99855.91;5008602;28;20056;-78
2023/08/04 00:34:21;;;;;;;6.72;3.70;;;;;;;24.70;100.00;99981.63;5004522;28;20485;-77
2023/08/04 00:36:49;;;;;;;7.10;3.45;;;;;;;24.62;100.00;99980.28;5003132;28;20060;-75
2023/08/04 00:39:15;;;;;;;6.25;2.60;;;;;;;24.62;100.00;99980.28;5010049;28;20132;-77
2023/08/04 00:41:41;;;;;;;8.40;4.75;;;;;;;24.64;100.00;99975.69;5010517;28;20477;-76
2023/08/04 00:44:06;;;;;;;3.47;2.22;;;;;;;24.01;100.00;99887.69;5000553;28;20817;-76
2023/08/04 00:46:32;;;;;;;4.63;3.17;;;;;;;24.00;100.00;99889.53;5009358;28;20048;-76
2023/08/04 00:48:59;;;;;;;6.80;3.63;;;;;;;24.55;100.00;99986.16;5008613;28;20070;-76
2023/08/04 00:51:26;;;;;;;5.28;3.55;;;;;;;24.53;100.00;99980.03;5003222;28;20548;-76
2023/08/04 00:53:52;;;;;;;5.55;2.85;;;;;;;24.14;100.00;99934.22;5002992;28;20034;-77
2023/08/04 00:56:18;;;;;;;12.57;4.30;;;;;;;24.33;100.00;99978.63;5010300;28;20099;-76
2023/08/04 00:58:44;;;;;;;5.88;2.80;;;;;;;24.18;100.00;99957.16;5009587;28;20046;-76
2023/08/04 01:01:09;;;;;;;5.65;3.25;;;;;;;24.09;100.00;99936.34;5009212;28;20081;-77
2023/08/04 01:03:38;;;;;;;5.75;3.75;;;;;;;24.12;100.00;99944.19;5004015;28;20042;-77
2023/08/04 01:06:31;;;;;;;6.05;3.47;;;;;;;24.39;100.00;99984.44;5009380;28;20068;-76
2023/08/04 01:09:26;;;;;;;;;;;;;;;24.47;100.00;99983.09;5009858;28;20037;-75
2023/08/04 01:12:03;;;;;;;4.20;2.67;;;;;;;23.99;100.00;99933.34;5007408;28;19914;-76
2023/08/04 01:14:31;;;;;;;12.10;3.25;;;;;;;23.58;100.00;99871.66;5009454;28;20030;-76
2023/08/04 01:16:56;;;;;;;4.50;2.38;;;;;;;24.09;100.00;99965.81;5008715;28;20464;-77
2023/08/04 01:19:22;;;;;;;4.43;2.30;;;;;;;23.37;100.00;99869.34;5002304;28;20046;-76
2023/08/04 01:21:47;;;;;;;5.45;3.50;;;;;;;23.31;100.00;99856.31;5004174;28;20042;-75
2023/08/04 01:24:12;;;;;;;5.32;3.10;;;;;;;23.34;100.00;99876.69;5008921;28;20037;-77
2023/08/04 01:26:44;;;;;;;3.47;2.13;;;;;;;23.74;100.00;99947.47;5009472;28;20022;-77
2023/08/04 01:29:10;;;;;;;5.70;3.50;;;;;;;23.83;100.00;99951.38;5006864;28;20341;-76
2023/08/04 01:31:38;;;;;;;4.22;2.80;;;;;;;23.38;100.00;99880.91;5007653;28;20061;-79
2023/08/04 01:34:03;;;;;;;5.90;2.75;;;;;;;23.75;100.00;99965.25;5003678;28;20053;-79
2023/08/04 01:36:29;;;;;;;7.53;3.33;;;;;;;23.95;100.00;99987.25;5008581;28;20030;-76
2023/08/04 01:38:55;;;;;;;5.55;3.60;;;;;;;23.30;100.00;99865.31;5007511;28;20725;-76
2023/08/04 01:41:21;;;;;;;7.60;3.08;;;;;;;23.68;100.00;99971.91;5008946;28;20115;-77
2023/08/04 01:43:46;;;;;;;4.50;2.10;;;;;;;23.01;100.00;99861.75;5007473;28;20070;-78
2023/08/04 01:46:12;;;;;;;5.53;3.28;;;;;;;23.04;100.00;99888.34;5003283;28;20054;-77
2023/08/04 01:48:37;;;;;;;8.25;3.97;;;;;;;23.40;100.00;99948.63;5001541;28;20045;-77
2023/08/04 01:51:03;;;;;;;10.75;3.58;;;;;;;22.89;100.00;99870.47;5003441;28;20382;-79
2023/08/04 01:53:28;;;;;;;5.72;3.75;;;;;;;22.87;100.00;99850.97;5013020;28;20132;-77
2023/08/04 01:55:53;;;;;;;6.07;3.72;;;;;;;23.52;100.00;99982.69;5013790;28;20045;-77
2023/08/04 01:58:20;;;;;;;4.72;3.10;;;;;;;22.78;100.00;99863.13;5013272;28;20041;-77
2023/08/04 02:00:46;;;;;;;7.28;3.45;;;;;;;23.72;100.00;99988.66;5021173;28;20034;-77
2023/08/04 02:03:11;;;;;;;9.52;4.45;;;;;;;22.97;100.00;99879.78;5009797;28;20573;-78
2023/08/04 02:05:36;;;;;;;5.18;3.15;;;;;;;23.33;100.00;99915.16;5020574;28;20103;-77
2023/08/04 02:08:02;;;;;;;4.45;2.88;;;;;;;23.22;100.00;99913.13;5011613;28;20042;-79
2023/08/04 02:10:28;;;;;;;5.32;3.72;;;;;;;23.51;100.00;99988.16;5008993;28;20044;-76
2023/08/04 02:12:53;;;;;;;5.32;3.25;;;;;;;23.50;100.00;99989.09;5015836;28;20061;-75
2023/08/04 02:15:18;;;;;;;6.60;2.83;;;;;;;22.89;100.00;99886.53;5009493;28;20478;-81
2023/08/04 02:17:44;;;;;;;3.22;2.20;;;;;;;23.16;100.00;99943.81;5020130;28;20033;-78
2023/08/04 02:20:10;;;;;;;7.40;4.10;;;;;;;23.26;100.00;99964.66;5013655;28;20406;-76
2023/08/04 02:22:35;;;;;;;13.38;2.60;;;;;;;23.10;100.00;99957.53;5021488;28;20044;-76
2023/08/04 02:25:01;;;;;;;5.95;2.17;;;;;;;23.27;100.00;99982.44;5023341;28;20149;-76
2023/08/04 02:27:26;;;;;;;4.68;3.03;;;;;;;23.06;100.00;99958.69;5042080;28;20103;-76
2023/08/04 02:29:51;;;;;;;4.90;3.03;;;;;;;23.30;100.00;99991.16;5018371;28;20029;-77
2023/08/04 02:32:17;;;;;;;5.47;3.78;;;;;;;23.35;100.00;99988.22;5014829;28;20092;-77
2023/08/04 02:34:42;;;;;;;4.97;3.65;;;;;;;22.73;100.00;99899.94;5015362;28;20117;-77
2023/08/04 02:37:08;;;;;;;6.57;3.72;;;;;;;23.26;100.00;99981.59;5014618;28;20045;-78
2023/08/04 02:39:34;;;;;;;6.78;4.00;;;;;;;22.58;100.00;99869.63;5011709;28;20030;-76
2023/08/04 02:42:00;;;;;;;5.97;3.85;;;;;;;23.29;100.00;99965.31;5015461;28;20067;-76
2023/08/04 02:44:25;;;;;;;5.50;3.38;;;;;;;23.00;100.00;99897.50;5012243;28;20030;-76
2023/08/04 02:46:51;;;;;;;6.07;4.40;;;;;;;23.62;100.00;99990.16;5013085;28;20069;-77
2023/08/04 02:49:16;;;;;;;6.22;3.78;;;;;;;23.64;100.00;99997.16;5014242;28;20045;-77
2023/08/04 02:51:42;;;;;;;7.32;3.60;;;;;;;23.09;100.00;99898.75;5017714;28;20040;-77
2023/08/04 02:54:09;;;;;;;4.13;3.13;;;;;;;23.62;100.00;99984.81;5011172;28;20034;-77
2023/08/04 02:56:35;;;;;;;8.40;5.43;;;;;;;22.83;100.00;99890.44;5016165;28;20034;-77
2023/08/04 02:59:01;;;;;;;4.35;3.00;;;;;;;23.06;100.00;99933.72;5015499;28;20402;-78
2023/08/04 03:01:26;;;;;;;6.82;3.45;;;;;;;23.45;100.00;99967.94;5009802;28;20037;-77
2023/08/04 03:03:51;;;;;;;5.05;2.90;;;;;;;22.68;100.00;99883.31;5003106;28;20072;-77
2023/08/04 03:06:17;;;;;;;6.30;3.20;;;;;;;23.13;100.00;99981.47;5009203;28;20042;-76
2023/08/04 03:08:42;;;;;;;4.60;2.70;;;;;;;22.63;100.00;99901.44;5020876;28;20072;-76
2023/08/04 03:11:11;;;;;;;6.72;3.88;;;;;;;23.17;100.00;99979.44;5016680;28;20724;-75
2023/08/04 03:13:37;;;;;;;8.25;4.50;;;;;;;22.97;100.00;100002.88;5014282;28;20040;-78
2023/08/04 03:16:03;;;;;;;4.97;2.72;;;;;;;22.46;100.00;99913.13;5010392;28;20049;-76
2023/08/04 03:18:29;;;;;;;5.55;3.33;;;;;;;22.95;100.00;100018.16;5006968;28;20042;-77
2023/08/04 03:20:55;;;;;;;6.28;3.35;;;;;;;22.99;100.00;100026.88;5014810;28;20142;-77
2023/08/04 03:23:21;;;;;;;4.45;3.03;;;;;;;22.55;100.00;99990.16;5018026;28;20420;-75
2023/08/04 03:25:47;;;;;;;8.02;3.35;;;;;;;22.70;100.00;100007.97;5011339;28;20088;-77
2023/08/04 03:28:13;;;;;;;4.85;2.83;;;;;;;22.72;100.00;100021.28;5012084;28;20702;-76
2023/08/04 03:30:39;;;;;;;4.72;3.53;;;;;;;22.57;100.00;100006.09;5009481;28;20062;-77
2023/08/04 03:33:04;;;;;;;6.70;3.80;;;;;;;22.69;100.00;100030.34;5010797;28;20041;-76
2023/08/04 03:35:30;;;;;;;5.30;3.38;;;;;;;22.73;100.00;100044.41;5009173;28;20076;-75
2023/08/04 03:37:55;;;;;;;5.95;3.33;;;;;;;22.57;100.00;100033.72;5008632;28;20478;-77
2023/08/04 03:40:21;;;;;;;6.95;3.58;;;;;;;22.68;100.00;100041.13;5009685;28;20038;-77
2023/08/04 03:42:47;;;;;;;4.30;2.58;;;;;;;21.84;100.00;99902.28;5005020;28;20042;-78
2023/08/04 03:45:13;;;;;;;6.80;3.50;;;;;;;22.55;100.00;100036.47;5009692;28;20565;-76
2023/08/04 03:47:39;;;;;;;6.55;2.83;;;;;;;22.11;100.00;99958.69;5011647;28;20137;-78
2023/08/04 03:50:05;;;;;;;6.32;3.78;;;;;;;22.71;100.00;100043.63;5008317;28;20142;-78
2023/08/04 03:52:31;;;;;;;5.78;4.50;;;;;;;22.63;100.00;100024.47;5010568;28;20042;-77
2023/08/04 03:54:57;;;;;;;7.13;3.80;;;;;;;22.66;100.00;100046.53;5011685;28;20092;-76
2023/08/04 03:57:22;;;;;;;4.57;2.40;;;;;;;22.65;100.00;100039.47;5013149;28;20038;-76
2023/08/04 03:59:48;;;;;;;5.50;2.88;;;;;;;22.32;100.00;99959.34;5010160;28;20030;-77
2023/08/04 04:02:13;;;;;;;4.10;2.47;;;;;;;22.50;100.00;99952.09;5009781;28;20728;-78
2023/08/04 04:04:39;;;;;;;7.35;3.90;;;;;;;22.73;100.00;99981.09;5014256;28;20038;-76
2023/08/04 04:07:05;;;;;;;7.10;4.05;;;;;;;22.71;100.00;99969.59;5012026;28;20481;-76
2023/08/04 04:09:30;;;;;;;6.90;4.95;;;;;;;22.88;100.00;100038.19;5011001;28;20030;-77
2023/08/04 04:11:56;;;;;;;6.65;3.88;;;;;;;22.40;100.00;99949.06;5009620;28;20040;-77
2023/08/04 04:14:21;;;;;;;6.43;4.25;;;;;;;22.62;100.00;100007.56;5015995;28;20690;-76
2023/08/04 04:16:47;;;;;;;7.55;4.90;;;;;;;22.81;100.00;100039.50;5007290;28;20053;-77
2023/08/04 04:19:12;;;;;;;6.35;3.33;;;;;;;22.77;100.00;100019.19;5016029;28;20419;-77
2023/08/04 04:21:37;;;;;;;8.88;4.90;;;;;;;22.29;100.00;99930.13;5009435;28;20695;-76
2023/08/04 04:24:03;;;;;;;6.20;4.15;;;;;;;22.43;100.00;99969.44;5013421;28;20116;-78
2023/08/04 04:26:29;;;;;;;9.00;4.20;;;;;;;22.94;100.00;100028.94;5012474;28;20037;-78
2023/08/04 04:28:54;;;;;;;6.40;3.17;;;;;;;22.36;100.00;99944.88;5010522;28;20120;-78
2023/08/04 04:31:20;;;;;;;6.00;3.33;;;;;;;22.60;100.00;99953.31;5018238;28;20492;-78
2023/08/04 04:33:45;;;;;;;5.85;3.50;;;;;;;22.45;100.00;99935.44;5011529;28;20072;-77
2023/08/04 04:36:10;;;;;;;9.80;4.35;;;;;;;22.86;100.00;99985.72;5010527;28;20095;-75
2023/08/04 04:38:36;;;;;;;5.13;3.67;;;;;;;22.39;100.00;99888.53;5010099;28;20081;-77
2023/08/04 04:41:02;;;;;;;10.98;3.42;;;;;;;22.81;100.00;99940.50;5007334;28;20393;-76
2023/08/04 04:43:29;;;;;;;4.60;3.03;;;;;;;23.51;100.00;100041.72;5006296;28;20065;-75
2023/08/04 04:45:55;;;;;;;6.07;3.55;;;;;;;23.45;100.00;100042.09;5012042;28;20517;-78
2023/08/04 04:48:23;;;;;;;5.70;3.53;;;;;;;22.71;100.00;99884.00;5009814;28;20061;-76
2023/08/04 04:50:50;;;;;;;13.95;9.90;;;;;;;23.14;100.00;99937.66;5014754;28;20113;-75
2023/08/04 04:53:16;;;;;;;5.90;3.55;;;;;;;23.13;100.00;99961.84;5008458;28;20036;-76
2023/08/04 04:55:42;;;;;;;5.15;3.33;;;;;;;23.07;100.00;99943.50;5008821;28;20042;-77
2023/08/04 04:58:07;;;;;;;8.30;4.30;;;;;;;23.63;100.00;100042.81;5015875;28;20108;-75
2023/08/04 05:00:34;;;;;;;5.05;3.45;;;;;;;23.49;100.00;100012.34;5006990;28;20382;-76
2023/08/04 05:03:00;;;;;;;8.18;4.07;;;;;;;23.27;100.00;99934.25;5011173;28;20042;-78
2023/08/04 05:05:25;;;;;;;6.90;4.18;;;;;;;23.39;100.00;99938.88;5013886;28;20565;-76
2023/08/04 05:07:51;;;;;;;4.55;3.15;;;;;;;24.12;100.00;100046.06;5016340;28;20034;-76
2023/08/04 05:10:17;;;;;;;6.15;3.95;;;;;;;23.49;100.00;99928.47;5006375;28;21468;-78
2023/08/04 05:12:42;;;;;;;6.05;4.38;;;;;;;24.17;100.00;100051.13;5014956;28;20029;-75
2023/08/04 05:15:08;;;;;;;7.45;3.22;;;;;;;23.96;100.00;99989.00;4995368;28;20038;-75
2023/08/04 05:17:35;;;;;;;8.07;3.70;;;;;;;23.93;100.00;99952.53;5012120;28;20030;-76
2023/08/04 05:20:01;;;;;;;7.70;4.18;;;;;;;23.85;100.00;99937.88;5014262;28;20041;-76
2023/08/04 05:22:27;;;;;;;6.13;4.35;;;;;;;24.74;100.00;100034.97;5020163;28;20102;-78
2023/08/04 05:24:52;;;;;;;5.78;3.65;;;;;;;25.28;100.00;100045.75;5040354;28;20034;-76
2023/08/04 05:27:18;;;;;;;5.05;2.95;;;;;;;25.54;100.00;100047.63;5014047;28;20075;-76
2023/08/04 05:29:43;;;;;;;5.22;3.17;;;;;;;25.49;100.00;99986.16;5010854;28;20144;-77
2023/08/04 05:32:09;;;;;;;4.25;2.90;;;;;;;26.18;100.00;100037.81;5011431;28;20470;-77
2023/08/04 05:34:34;;;;;;;5.60;3.33;;;;;;;26.31;100.00;100035.09;5010244;28;20444;-76
2023/08/04 05:37:00;;;;;;;5.15;3.13;;;;;;;26.89;100.00;100051.56;5018881;28;20050;-77
2023/08/04 05:39:25;;;;;;;7.25;3.22;;;;;;;26.86;100.00;100024.88;5013117;28;20041;-77
2023/08/04 05:41:50;;;;;;;3.67;2.40;;;;;;;26.94;100.00;99971.28;5014949;28;20037;-79
2023/08/04 05:44:16;;;;;;;5.25;3.35;;;;;;;27.77;100.00;100021.56;5008331;28;20025;-78
2023/08/04 05:46:41;;;;;;;5.82;2.72;;;;;;;27.93;100.00;100045.50;5009415;28;20042;-78
2023/08/04 05:49:07;;;;;;;3.95;2.35;;;;;;;27.78;100.00;99955.88;5014407;28;20056;-75
2023/08/04 05:51:32;;;;;;;6.07;3.78;;;;;;;27.87;100.00;99982.13;5010684;28;20347;-76
2023/08/04 05:53:58;;;;;;;5.47;2.88;;;;;;;28.24;100.00;99960.31;5019628;28;20022;-77
2023/08/04 05:56:23;;;;;;;5.20;3.00;;;;;;;28.18;100.00;99982.38;5009991;28;20037;-76
2023/08/04 05:58:49;;;;;;;5.22;3.58;;;;;;;28.54;100.00;100013.66;5011176;28;20448;-78
2023/08/04 06:01:14;;;;;;;5.72;3.45;;;;;;;29.20;100.00;100043.34;5012490;28;20057;-76
2023/08/04 06:03:40;;;;;;;9.45;3.53;;;;;;;28.61;100.00;100068.88;5006103;28;20041;-76
2023/08/04 06:06:05;;;;;;;3.70;2.65;;;;;;;29.18;100.00;100037.22;5013924;28;20093;-78
2023/08/04 06:08:31;;;;;;;5.22;2.88;;;;;;;29.36;100.00;100045.63;5011305;28;20131;-78
2023/08/04 06:10:57;;;;;;;8.77;2.10;;;;;;;29.24;100.00;100057.44;5016651;28;20041;-78
2023/08/04 06:13:23;;;;;;;9.63;4.07;;;;;;;28.95;100.00;100057.16;5017806;28;20038;-78
2023/08/04 06:15:48;;;;;;;6.55;3.40;;;;;;;29.40;100.00;99984.88;5013256;28;20045;-79
2023/08/04 06:18:14;;;;;;;4.65;3.28;;;;;;;29.12;100.00;100020.66;5010014;28;20030;-78
2023/08/04 06:20:39;;;;;;;5.68;3.17;;;;;;;29.48;100.00;100015.81;5013082;28;20050;-76
2023/08/04 06:23:05;;;;;;;5.22;3.22;;;;;;;29.20;100.00;100040.66;5006240;28;20053;-77
2023/08/04 06:25:31;;;;;;;4.50;3.35;;;;;;;29.46;100.00;100059.22;5017890;28;20042;-75
2023/08/04 06:27:56;;;;;;;4.63;2.08;;;;;;;29.79;100.00;100051.94;5015608;28;20056;-78
2023/08/04 06:30:22;;;;;;;6.40;2.42;;;;;;;29.50;100.00;99973.28;5012933;28;20049;-77
2023/08/04 06:32:47;;;;;;;5.13;2.80;;;;;;;29.65;100.00;100053.94;5008983;28;20041;-77
2023/08/04 06:35:13;;;;;;;3.10;2.08;;;;;;;29.28;100.00;100058.91;5005744;28;20327;-77
2023/08/04 06:37:39;;;;;;;3.55;2.20;;;;;;;29.31;100.00;100050.53;5015077;28;20042;-77
2023/08/04 06:40:04;;;;;;;3.88;3.17;;;;;;;29.72;100.00;100053.47;5011874;28;20049;-77
2023/08/04 06:42:30;;;;;;;4.35;2.75;;;;;;;29.96;100.00;100034.22;5006850;28;20414;-77
2023/08/04 06:44:56;;;;;;;6.45;4.35;;;;;;;29.58;100.00;99963.53;5012855;28;20032;-78
2023/08/04 06:47:21;;;;;;;3.58;2.75;;;;;;;29.93;100.00;99980.41;5012864;28;20052;-79
2023/08/04 06:49:47;;;;;;;5.13;3.10;;;;;;;30.02;100.00;100064.31;5011683;28;20053;-78
2023/08/04 06:52:12;;;;;;;4.05;2.53;;;;;;;30.06;100.00;100064.91;5012545;28;20069;-77
2023/08/04 06:54:38;;;;;;;4.40;2.92;;;;;;;29.95;100.00;100056.88;5008274;28;20042;-77
2023/08/04 06:57:04;;;;;;;6.05;2.38;;;;;;;30.08;100.00;100038.56;5010005;28;20092;-77
2023/08/04 06:59:30;;;;;;;4.13;2.72;;;;;;;30.30;100.00;100075.47;5007431;28;20030;-76
2023/08/04 07:01:55;;;;;;;4.30;2.60;;;;;;;30.19;100.00;100041.19;5010049;28;20048;-76
2023/08/04 07:04:21;;;;;;;5.32;3.17;;;;;;;29.42;100.00;99985.59;5008254;28;20129;-77
2023/08/04 07:06:46;;;;;;;4.18;2.78;;;;;;;29.96;100.00;99993.66;5009045;28;20053;-76
2023/08/04 07:09:12;;;;;;;3.67;2.30;;;;;;;30.06;100.00;100054.97;5016173;28;20041;-78
2023/08/04 07:11:37;;;;;;;5.05;3.38;;;;;;;29.74;100.00;99984.72;5017733;28;20036;-77
2023/08/04 07:14:03;;;;;;;4.75;2.88;;;;;;;29.84;100.00;100042.41;5012209;28;20042;-78
2023/08/04 07:16:28;;;;;;;5.88;3.17;;;;;;;29.67;100.00;100034.94;5006603;28;20366;-78
2023/08/04 07:18:54;;;;;;;3.40;2.13;;;;;;;29.96;100.00;100050.47;5021188;28;20033;-77
2023/08/04 07:21:19;;;;;;;6.85;2.80;;;;;;;29.81;100.00;99988.59;5012334;28;20398;-81
2023/08/04 07:23:45;;;;;;;2.80;2.33;;;;;;;29.93;100.00;100069.69;5008814;28;20026;-78
2023/08/04 07:26:10;;;;;;;3.40;2.58;;;;;;;29.72;100.00;100075.09;5011149;28;20401;-77
2023/08/04 07:28:38;;;;;;;5.63;3.65;;;;;;;29.53;100.00;100019.84;5015743;28;20095;-76
2023/08/04 07:31:10;;;;;;;3.67;2.45;;;;;;;29.70;100.00;100072.50;5010527;28;20034;-78
2023/08/04 07:33:36;;;;;;;5.90;3.20;;;;;;;29.94;100.00;100045.19;5004267;28;20050;-77
2023/08/04 07:36:03;;;;;;;6.32;3.47;;;;;;;29.46;100.00;99976.25;5012622;28;20064;-78
2023/08/04 07:38:29;;;;;;;5.18;3.08;;;;;;;29.53;100.00;99967.63;5012393;28;20885;-77
2023/08/04 07:40:55;;;;;;;2.78;2.20;;;;;;;30.13;100.00;100071.50;5006337;28;20554;-80
2023/08/04 07:43:20;;;;;;;4.72;2.97;;;;;;;29.60;100.00;99982.31;5009439;28;20037;-76
2023/08/04 07:45:46;;;;;;;2.08;1.77;;;;;;;30.24;100.00;100040.78;5007977;28;20034;-78
2023/08/04 07:48:11;;;;;;;4.72;3.08;;;;;;;29.87;100.00;99989.88;5011909;28;20042;-76
2023/08/04 07:50:39;;;;;;;6.30;2.88;;;;;;;30.13;100.00;100035.44;5006841;28;20414;-77
2023/08/04 07:53:05;;;;;;;5.85;3.20;;;;;;;29.95;100.00;99987.38;5012274;28;20057;-78
2023/08/04 07:55:34;;;;;;;5.20;3.00;;;;;;;30.36;99.20;100020.75;5010540;28;20038;-79
2023/08/04 07:58:00;;;;;;;3.33;2.40;;;;;;;30.76;100.00;100046.97;5003630;28;20592;-78
2023/08/04 08:00:25;;;;;;;5.00;2.55;;;;;;;30.81;96.65;100033.88;5003468;28;20478;-79
2023/08/04 08:02:51;;;;;;;4.68;2.67;;;;;;;30.48;97.72;99999.84;4997603;28;20033;-79
2023/08/04 08:05:16;;;;;;;4.72;3.42;;;;;;;30.99;94.63;100036.78;5004702;28;20018;-77
2023/08/04 08:07:42;;;;;;;2.78;1.90;;;;;;;30.66;94.90;99967.53;5005903;28;20044;-77
2023/08/04 08:10:08;;;;;;;5.93;2.60;;;;;;;30.73;91.91;99975.97;5005773;28;20474;-76
2023/08/04 08:12:33;;;;;;;5.88;4.03;;;;;;;30.55;91.14;99973.06;5005857;28;20430;-76
2023/08/04 08:14:59;;;;;;;7.30;3.03;;;;;;;31.27;91.99;100062.19;4999256;28;20409;-76
2023/08/04 08:17:24;;;;;;;3.60;2.55;;;;;;;31.15;88.27;100019.97;5006306;28;20028;-78
2023/08/04 08:19:51;;;;;;;5.22;2.65;;;;;;;31.06;87.65;99991.00;5005733;28;20072;-80
2023/08/04 08:22:16;;;;;;;4.10;2.80;;;;;;;31.71;87.79;100054.50;5004568;28;20034;-78
2023/08/04 08:24:42;;;;;;;4.45;3.05;;;;;;;31.69;87.06;100063.78;5005617;28;20046;-76
2023/08/04 08:27:08;;;;;;;4.70;2.85;;;;;;;30.96;87.76;99944.06;5004997;28;20041;-76
2023/08/04 08:29:35;;;;;;;4.78;2.13;;;;;;;32.22;86.04;100065.09;5006335;28;20111;-77
2023/08/04 08:32:01;;;;;;;5.45;3.63;;;;;;;32.23;84.20;100064.97;5000947;28;20228;-78
2023/08/04 08:34:26;;;;;;;3.92;2.75;;;;;;;31.97;82.34;99980.63;5004090;28;20129;-78
2023/08/04 08:36:52;;;;;;;5.28;3.33;;;;;;;31.98;82.07;99966.03;5005316;28;20048;-77
2023/08/04 08:39:17;;;;;;;8.88;3.22;;;;;;;32.38;82.49;99982.00;5008880;28;20053;-76
2023/08/04 08:41:43;;;;;;;4.38;3.05;;;;;;;32.93;80.74;100059.06;5005012;28;20517;-76
2023/08/04 08:44:09;;;;;;;4.75;3.20;;;;;;;32.89;77.86;100001.44;5008240;28;20038;-76
2023/08/04 08:46:35;;;;;;;4.20;2.90;;;;;;;33.12;74.07;99995.56;5009228;28;20045;-79
2023/08/04 08:49:02;;;;;;;4.55;3.20;;;;;;;33.56;70.90;100048.13;5008138;28;20052;-79
2023/08/04 08:51:29;;;;;;;6.30;2.67;;;;;;;33.14;71.11;100039.78;5006385;28;20037;-76
2023/08/04 08:53:57;;;;;;;3.42;2.15;;;;;;;33.38;71.45;99979.28;5010241;28;20037;-78
2023/08/04 08:56:25;;;;;;;9.18;3.38;;;;;;;33.76;70.83;100048.84;5009773;28;20378;-77
2023/08/04 08:58:50;;;;;;;4.63;3.10;;;;;;;34.03;66.76;100052.41;5006287;28;20153;-78
2023/08/04 09:01:16;;;;;;;4.45;2.50;;;;;;;34.05;67.11;99963.25;5007311;28;20225;-76
2023/08/04 09:03:42;;;;;;;6.05;2.78;;;;;;;34.79;63.98;100048.91;5005868;28;20038;-77
2023/08/04 09:06:08;;;;;;;5.68;3.45;;;;;;;34.38;63.66;100031.53;5009140;28;20038;-76
2023/08/04 09:08:33;;;;;;;5.43;4.03;;;;;;;34.43;62.53;99958.31;5009128;28;20022;-76
2023/08/04 09:10:59;;;;;;;4.80;3.35;;;;;;;34.53;61.14;99978.09;5009326;28;20525;-76
2023/08/04 09:13:26;;;;;;;7.35;3.72;;;;;;;35.00;59.50;99988.44;5008349;28;20286;-77
2023/08/04 09:15:59;;;;;;;5.65;4.07;;;;;;;35.44;56.35;100047.34;5009308;28;20132;-77
2023/08/04 09:18:33;;;;;;;4.55;3.05;;;;;;;35.66;56.56;100033.03;5000876;28;20140;-77
2023/08/04 09:21:10;;;;;;;5.65;2.67;;;;;;;35.49;55.09;99965.78;5008808;28;20046;-77
2023/08/04 09:23:43;;;;;;;4.60;3.13;;;;;;;35.98;54.46;99986.72;5003308;28;20084;-77
2023/08/04 09:26:08;;;;;;;3.45;2.15;;;;;;;36.29;53.77;100033.25;5005559;28;20145;-77
2023/08/04 09:28:34;;;;;;;4.43;3.22;;;;;;;35.34;51.40;100006.56;5008740;28;20098;-78
2023/08/04 09:31:05;;;;;;;5.10;3.67;;;;;;;35.51;52.40;99970.06;5008502;28;20042;-77
2023/08/04 09:33:32;;;;;;;4.22;2.70;;;;;;;36.47;51.09;100042.06;5004328;28;20402;-79
2023/08/04 09:36:05;;;;;;;4.45;2.92;;;;;;;36.19;50.21;99970.59;5006201;28;20427;-80
2023/08/04 09:38:32;;;;;;;5.00;2.88;;;;;;;36.84;50.21;100031.50;5009316;28;20042;-78
2023/08/04 09:41:15;;;;;;;4.40;2.83;;;;;;;36.32;48.80;100011.91;5008519;28;20046;-78
2023/08/04 09:43:45;;;;;;;4.50;3.08;;;;;;;36.21;49.60;100019.63;4998566;28;20378;-78
2023/08/04 09:46:11;;;;;;;7.63;3.03;;;;;;;36.78;49.63;100011.16;5006268;28;20144;-79
2023/08/04 09:48:36;;;;;;;4.03;3.20;;;;;;;37.27;48.78;100002.63;5008100;28;20045;-79
2023/08/04 09:51:15;;;;;;;2.30;1.88;;;;;;;37.26;48.49;100008.31;5008406;28;20112;-79
2023/08/04 09:53:50;;;;;;;4.93;2.78;;;;;;;37.04;48.31;100018.19;4998343;28;20435;-78
2023/08/04 09:56:20;;;;;;;2.42;2.10;;;;;;;35.78;48.22;99929.78;5008115;28;20096;-77
2023/08/04 09:58:48;;;;;;;4.18;3.08;;;;;;;36.18;47.10;99875.19;5006095;28;20081;-78
2023/08/04 10:01:14;;;;;;;3.15;2.08;;;;;;;36.88;48.45;99948.06;5007954;28;20065;-78
2023/08/04 10:03:42;;;;;;;5.35;3.63;;;;;;;36.43;46.45;99873.97;5005243;28;20050;-77
2023/08/04 10:06:09;;;;;;;4.40;3.28;;;;;;;37.37;45.67;99942.19;5001946;28;20077;-77
2023/08/04 10:08:40;;;;;;;3.38;1.85;;;;;;;37.36;45.47;99940.47;5008449;28;20454;-78
2023/08/04 10:11:07;;;;;;;4.45;3.03;;;;;;;37.82;44.76;99929.41;5001275;28;20042;-77
2023/08/04 10:13:43;;;;;;;7.97;3.80;;;;;;;38.05;44.55;99997.84;5007311;28;20172;-78
2023/08/04 10:16:15;;;;;;;5.07;3.10;;;;;;;38.02;43.62;99946.13;5007481;28;20049;-78
2023/08/04 10:18:53;;;;;;;4.82;2.90;;;;;;;38.51;43.96;99999.50;5007839;28;20830;-78
2023/08/04 10:21:36;;;;;;;3.97;2.47;;;;;;;38.33;43.63;99951.41;4998996;28;20049;-77
2023/08/04 10:24:03;;;;;;;4.30;2.70;;;;;;;37.15;43.51;99930.22;5007743;28;20034;-78
2023/08/04 10:26:32;;;;;;;4.43;2.63;;;;;;;36.83;44.91;99923.97;5008160;28;20040;-77
2023/08/04 10:29:04;;;;;;;3.80;2.75;;;;;;;36.93;46.12;99989.38;5004403;28;20070;-78
2023/08/04 10:31:57;;;;;;;4.68;3.08;;;;;;;37.75;44.73;99936.69;5007698;28;20062;-78
2023/08/04 10:34:28;;;;;;;6.15;3.83;;;;;;;38.31;43.88;99982.78;5002205;28;20092;-78
2023/08/04 10:37:09;;;;;;;5.13;3.15;;;;;;;38.24;43.32;99985.44;5007257;28;20132;-79
2023/08/04 10:39:37;;;;;;;3.88;3.35;;;;;;;38.11;43.39;99985.25;5006617;28;20073;-78
2023/08/04 10:42:22;;;;;;;5.30;2.95;;;;;;;38.44;42.34;99978.28;5007591;28;20042;-77
2023/08/04 10:44:54;;;;;;;5.00;3.83;;;;;;;39.33;41.62;99979.06;5007508;28;20125;-78
2023/08/04 10:47:46;;;;;;;4.40;2.38;;;;;;;38.58;41.68;99975.75;5007052;28;20053;-77
2023/08/04 10:50:13;;;;;;;3.42;2.72;;;;;;;38.22;41.81;99894.34;5007749;28;20042;-77
2023/08/04 10:52:39;;;;;;;4.10;2.92;;;;;;;38.69;40.75;99934.13;5007383;28;20137;-79
2023/08/04 10:55:08;;;;;;;4.43;2.72;;;;;;;37.95;40.42;99912.28;5006989;28;20042;-77
2023/08/04 10:57:35;;;;;;;4.28;3.35;;;;;;;38.06;40.04;99897.28;5005150;28;20049;-80
2023/08/04 11:00:02;;;;;;;3.97;2.92;;;;;;;38.98;38.91;99966.06;5001879;28;20034;-77
2023/08/04 11:02:28;;;;;;;3.25;2.28;;;;;;;39.39;38.33;99970.91;5006002;28;20149;-78
2023/08/04 11:04:54;;;;;;;4.05;2.47;;;;;;;38.79;38.54;99958.47;5001571;28;20421;-78
2023/08/04 11:07:22;;;;;;;4.07;2.88;;;;;;;37.99;39.24;99895.28;5007120;28;20254;-80
2023/08/04 11:09:48;;;;;;;6.45;4.10;;;;;;;38.11;39.95;99950.47;5038154;28;20482;-79
2023/08/04 11:12:15;;;;;;;4.97;2.55;;;;;;;37.94;39.12;99886.78;5007045;28;20117;-78
2023/08/04 11:14:41;;;;;;;4.05;3.17;;;;;;;38.64;38.08;99940.19;4999131;28;20115;-77
2023/08/04 11:17:18;;;;;;;4.00;3.22;;;;;;;39.09;38.03;99906.22;5006705;28;20382;-79
2023/08/04 11:19:44;;;;;;;4.75;3.63;;;;;;;39.57;38.30;99947.59;5036799;28;20030;-81
2023/08/04 11:22:15;;;;;;;5.38;3.80;;;;;;;39.59;37.71;99929.84;5005398;28;20054;-79